Time;durP1;ratioP1;P1;durP2;ratioP2;P2;SDS_P1;SDS_P2;PMS_P1;PMS_P2;Temp;Humidity;BMP_temperature;BMP_pressure;BME280_temperature;BME280_humidity;BME280_pressure;Samples;Min_cycle;Max_cycle;Signal;HPM_P1;HPM_P2
2023/01/13 00:01:12;;;;;;;2.17;0.57;;;8.80;99.90;;;;;;5087413;28;20032;-58
2023/01/13 00:03:38;;;;;;;0.75;0.50;;;8.90;99.90;;;;;;5087632;28;20026;-61
2023/01/13 00:06:06;;;;;;;1.98;0.40;;;8.90;99.90;;;;;;5087348;28;20118;-64
2023/01/13 00:08:32;;;;;;;0.47;0.32;;;8.90;99.90;;;;;;5069947;28;20024;-60
2023/01/13 00:10:58;;;;;;;0.43;0.30;;;8.80;99.90;;;;;;5088415;28;20355;-62
2023/01/13 00:13:26;;;;;;;1.10;0.52;;;8.90;99.90;;;;;;5087450;28;20035;-60
2023/01/13 00:15:56;;;;;;;0.50;0.35;;;8.90;99.90;;;;;;5077225;28;20055;-61
2023/01/13 00:18:22;;;;;;;3.53;1.55;;;8.90;99.90;;;;;;5087257;28;20170;-62
2023/01/13 00:20:57;;;;;;;0.30;0.22;;;8.90;99.90;;;;;;5088279;28;20129;-60
2023/01/13 00:23:23;;;;;;;1.05;0.40;;;8.90;99.90;;;;;;5088242;28;20024;-63
2023/01/13 00:25:49;;;;;;;3.83;0.50;;;8.90;99.90;;;;;;5089516;28;20477;-57
2023/01/13 00:28:15;;;;;;;1.63;1.05;;;8.80;99.90;;;;;;5091057;28;20032;-62
2023/01/13 00:30:40;;;;;;;0.95;0.30;;;8.80;99.90;;;;;;5090782;28;20027;-63
2023/01/13 00:33:06;;;;;;;0.95;0.30;;;8.90;99.90;;;;;;5086229;28;20563;-62
2023/01/13 00:35:31;;;;;;;0.60;0.30;;;8.90;99.90;;;;;;5089393;28;20221;-64
2023/01/13 00:37:57;;;;;;;0.85;0.30;;;8.90;99.90;;;;;;5090267;28;20028;-57
2023/01/13 00:40:22;;;;;;;0.50;0.30;;;8.80;99.90;;;;;;5091128;28;20032;-60
2023/01/13 00:45:32;;;;;;;3.92;0.75;;;8.90;99.90;;;;;;5082615;28;20539;-59
2023/01/13 00:47:58;;;;;;;0.82;0.38;;;8.80;99.90;;;;;;5090851;28;20036;-60
2023/01/13 00:50:24;;;;;;;0.70;0.40;;;8.90;99.90;;;;;;5090579;28;20394;-59
2023/01/13 00:52:49;;;;;;;0.30;0.30;;;8.90;99.90;;;;;;5090449;28;20460;-60
2023/01/13 00:55:15;;;;;;;0.73;0.30;;;8.90;99.90;;;;;;5090397;28;20024;-63
2023/01/13 00:57:41;;;;;;;1.60;0.40;;;8.90;99.90;;;;;;5090431;28;20063;-62
2023/01/13 01:00:07;;;;;;;0.93;0.30;;;8.90;99.90;;;;;;5090601;28;20031;-64
2023/01/13 01:02:32;;;;;;;1.52;0.55;;;9.00;99.90;;;;;;5090284;28;20059;-63
2023/01/13 01:04:59;;;;;;;0.63;0.40;;;9.00;99.90;;;;;;5090505;28;20079;-61
2023/01/13 01:07:25;;;;;;;0.57;0.30;;;8.90;99.90;;;;;;5090215;28;20028;-62
2023/01/13 01:09:51;;;;;;;0.90;0.30;;;9.00;99.90;;;;;;5090662;28;20370;-63
2023/01/13 01:12:16;;;;;;;1.00;0.30;;;9.00;99.90;;;;;;5090542;28;20510;-62
2023/01/13 01:14:42;;;;;;;0.80;0.30;;;9.00;99.90;;;;;;5090872;28;20103;-61
2023/01/13 01:17:07;;;;;;;1.00;0.30;;;8.90;99.90;;;;;;5091748;28;20420;-63
2023/01/13 01:19:36;;;;;;;1.55;0.30;;;8.90;99.90;;;;;;5093902;28;20080;-61
2023/01/13 01:22:02;;;;;;;0.88;0.20;;;9.00;99.90;;;;;;5094121;28;20032;-62
2023/01/13 01:24:27;;;;;;;0.55;0.30;;;9.00;99.90;;;;;;5093764;28;20024;-62
2023/01/13 01:26:53;;;;;;;0.32;0.25;;;9.00;99.90;;;;;;5093920;28;20032;-61
2023/01/13 01:29:18;;;;;;;0.90;0.38;;;9.00;99.90;;;;;;5094185;28;20020;-61
2023/01/13 01:31:44;;;;;;;0.43;0.30;;;9.00;99.90;;;;;;5093957;28;20034;-63
2023/01/13 01:34:10;;;;;;;1.10;0.30;;;9.00;99.90;;;;;;5093427;28;20059;-63
2023/01/13 01:36:35;;;;;;;1.55;0.40;;;9.00;99.90;;;;;;5094176;28;20157;-64
2023/01/13 01:39:01;;;;;;;0.60;0.30;;;9.00;99.90;;;;;;5094170;28;20032;-63
2023/01/13 01:41:30;;;;;;;0.80;0.25;;;9.00;99.90;;;;;;5093685;28;20028;-62
2023/01/13 01:44:05;;;;;;;1.15;0.40;;;9.00;99.90;;;;;;5093529;28;20036;-63
2023/01/13 01:46:40;;;;;;;1.25;0.30;;;9.00;99.90;;;;;;5093728;28;20020;-61
2023/01/13 01:49:25;;;;;;;2.10;0.30;;;9.10;99.90;;;;;;5093555;28;20099;-60
2023/01/13 01:51:51;;;;;;;0.93;0.35;;;9.00;99.90;;;;;;5082692;28;20123;-60
2023/01/13 01:54:22;;;;;;;2.15;0.55;;;9.10;99.90;;;;;;5093232;28;20107;-60
2023/01/13 01:56:48;;;;;;;0.65;0.30;;;9.10;99.90;;;;;;5093518;28;20074;-61
2023/01/13 01:59:14;;;;;;;0.22;0.10;;;9.00;99.90;;;;;;5093527;28;20028;-61
2023/01/13 02:01:42;;;;;;;1.13;0.30;;;9.10;99.90;;;;;;5093364;28;20028;-60
2023/01/13 02:04:15;;;;;;;1.00;0.20;;;9.00;99.90;;;;;;5093132;28;20074;-62
2023/01/13 02:06:43;;;;;;;1.70;0.30;;;9.00;99.90;;;;;;5110736;22;20044;-65
2023/01/13 02:09:08;;;;;;;0.50;0.20;;;9.10;99.90;;;;;;5103426;28;20012;-67
2023/01/13 02:14:25;;;;;;;0.60;0.30;;;9.10;99.90;;;;;;5102965;28;20078;-65
2023/01/13 02:17:14;;;;;;;0.73;0.30;;;9.10;99.90;;;;;;5103052;28;20035;-64
2023/01/13 02:20:18;;;;;;;0.17;0.10;;;9.10;99.90;;;;;;5092472;28;20402;-64
2023/01/13 02:23:04;;;;;;;0.25;0.10;;;9.10;99.90;;;;;;5117538;28;20074;-64
2023/01/13 02:25:41;;;;;;;1.35;0.20;;;9.00;99.90;;;;;;5070886;28;20028;-66
2023/01/13 02:31:40;;;;;;;0.98;0.30;;;9.00;99.90;;;;;;5100972;28;20024;-64
2023/01/13 02:31:43;;;;;;;0.17;0.15;;;8.90;99.90;;;;;;5102826;28;20032;-63
2023/01/13 02:34:34;;;;;;;0.32;0.15;;;9.00;99.90;;;;;;5101911;28;20028;-65
2023/01/13 02:37:13;;;;;;;0.57;0.10;;;8.90;99.90;;;;;;5102367;28;20024;-64
2023/01/13 02:39:52;;;;;;;0.20;0.10;;;8.90;99.90;;;;;;5101034;28;20039;-64
2023/01/13 02:45:21;;;;;;;0.30;0.10;;;9.00;99.90;;;;;;5102246;28;20055;-64
2023/01/13 02:47:50;;;;;;;0.30;0.10;;;9.00;99.90;;;;;;5102872;28;20021;-64
2023/01/13 02:50:21;;;;;;;0.35;0.10;;;9.00;99.90;;;;;;5103390;28;20024;-65
2023/01/13 02:53:00;;;;;;;4.35;0.30;;;9.00;99.90;;;;;;5100710;28;20035;-63
2023/01/13 02:55:36;;;;;;;0.43;0.20;;;9.00;99.90;;;;;;5098920;28;20024;-64
2023/01/13 02:58:05;;;;;;;0.32;0.13;;;9.00;99.90;;;;;;5098085;28;20099;-64
2023/01/13 03:00:32;;;;;;;0.40;0.20;;;9.00;99.90;;;;;;5098384;28;20436;-63
2023/01/13 03:02:59;;;;;;;5.32;0.20;;;9.00;99.90;;;;;;5097821;28;20046;-64
2023/01/13 03:05:26;;;;;;;0.10;0.10;;;8.90;99.90;;;;;;5098617;28;20103;-63
2023/01/13 03:08:09;;;;;;;1.30;0.77;;;8.90;99.90;;;;;;5100262;28;20095;-64
2023/01/13 03:10:50;;;;;;;0.20;0.10;;;8.90;99.90;;;;;;5102769;28;20021;-64
2023/01/13 03:13:37;;;;;;;0.30;0.10;;;8.90;99.90;;;;;;5096106;28;20110;-64
2023/01/13 03:16:39;;;;;;;0.10;0.10;;;8.90;99.90;;;;;;5114903;28;20028;-64
2023/01/13 03:19:29;;;;;;;1.13;0.30;;;8.90;99.90;;;;;;5122190;28;20030;-63
2023/01/13 03:22:29;;;;;;;0.15;0.05;;;8.90;99.90;;;;;;5121937;28;20049;-64
2023/01/13 03:25:20;;;;;;;0.35;0.10;;;9.00;99.90;;;;;;5120159;28;20020;-65
2023/01/13 03:27:56;;;;;;;0.47;0.17;;;8.90;99.90;;;;;;5112726;28;20020;-63
2023/01/13 03:30:26;;;;;;;0.95;0.20;;;8.90;99.90;;;;;;5098732;28;20020;-64
2023/01/13 03:32:57;;;;;;;4.15;0.30;;;8.90;99.90;;;;;;5098582;28;20066;-64
2023/01/13 03:35:35;;;;;;;0.15;0.03;;;8.90;99.90;;;;;;5096188;28;20115;-64
2023/01/13 03:38:13;;;;;;;1.20;0.20;;;8.90;99.90;;;;;;5095843;28;20028;-63
2023/01/13 03:40:51;;;;;;;0.60;0.20;;;8.90;99.90;;;;;;5095204;28;20030;-66
2023/01/13 03:46:17;;;;;;;0.25;0.20;;;8.80;99.90;;;;;;5095094;28;20039;-65
2023/01/13 03:48:45;;;;;;;0.22;0.10;;;8.70;99.90;;;;;;5095296;28;20486;-64
2023/01/13 03:51:16;;;;;;;0.30;0.20;;;8.70;99.90;;;;;;5096610;28;20386;-65
2023/01/13 03:53:51;;;;;;;0.73;0.20;;;8.60;99.90;;;;;;5097531;28;20040;-64
2023/01/13 03:56:30;;;;;;;0.52;0.20;;;8.60;99.90;;;;;;5097513;28;20017;-66
2023/01/13 03:58:58;;;;;;;0.20;0.10;;;8.60;99.90;;;;;;5097039;28;20457;-63
2023/01/13 04:01:44;;;;;;;0.98;0.20;;;8.70;99.90;;;;;;5096802;28;20051;-63
2023/01/13 04:04:18;;;;;;;0.43;0.10;;;8.60;99.90;;;;;;5098432;28;20050;-64
2023/01/13 04:06:55;;;;;;;0.57;0.10;;;8.60;99.90;;;;;;5099885;28;20024;-67
2023/01/13 04:09:33;;;;;;;0.20;0.10;;;8.80;99.90;;;;;;5100371;28;20036;-64
2023/01/13 04:15:19;;;;;;;0.28;0.10;;;8.70;99.90;;;;;;5093493;28;20085;-65
2023/01/13 04:17:44;;;;;;;0.22;0.10;;;8.70;99.90;;;;;;5083291;28;20402;-66
2023/01/13 04:20:10;;;;;;;0.32;0.10;;;8.60;99.90;;;;;;5099476;28;20047;-65
2023/01/13 04:22:36;;;;;;;0.35;0.03;;;8.70;99.90;;;;;;5099064;28;20031;-64
2023/01/13 04:25:01;;;;;;;0.43;0.20;;;8.70;99.90;;;;;;5099116;28;20020;-64
2023/01/13 04:27:27;;;;;;;0.30;0.20;;;8.70;99.90;;;;;;5097948;28;20024;-64
2023/01/13 04:29:53;;;;;;;0.40;0.17;;;8.60;99.90;;;;;;5094500;28;20390;-64
2023/01/13 04:32:18;;;;;;;1.17;0.30;;;8.70;99.90;;;;;;5076287;28;20028;-64
2023/01/13 04:34:44;;;;;;;0.15;0.10;;;8.60;99.90;;;;;;5089103;28;20020;-65
2023/01/13 04:37:10;;;;;;;1.40;0.32;;;8.70;99.90;;;;;;5098173;28;20058;-65
2023/01/13 04:39:36;;;;;;;0.95;0.30;;;8.70;99.90;;;;;;5098820;28;20027;-65
2023/01/13 04:42:01;;;;;;;0.63;0.20;;;8.60;99.90;;;;;;5097892;28;20527;-62
2023/01/13 04:44:29;;;;;;;0.43;0.20;;;8.60;99.90;;;;;;5098360;28;20115;-61
2023/01/13 04:46:56;;;;;;;0.50;0.30;;;8.60;99.90;;;;;;5100960;28;20027;-66
2023/01/13 04:49:22;;;;;;;1.17;0.20;;;8.60;99.90;;;;;;5101596;28;20024;-63
2023/01/13 04:51:47;;;;;;;0.32;0.10;;;8.60;99.90;;;;;;5103287;28;20126;-63
2023/01/13 04:54:13;;;;;;;1.83;0.10;;;8.50;99.90;;;;;;5104935;28;20024;-64
2023/01/13 04:56:39;;;;;;;0.57;0.13;;;8.50;99.90;;;;;;5103448;28;20411;-64
2023/01/13 04:59:04;;;;;;;1.15;0.30;;;8.40;99.90;;;;;;5101624;28;20062;-64
2023/01/13 05:01:30;;;;;;;0.43;0.10;;;8.50;99.90;;;;;;5101806;28;20028;-62
2023/01/13 05:03:56;;;;;;;0.20;0.20;;;8.50;99.90;;;;;;5101377;28;20031;-63
2023/01/13 05:06:21;;;;;;;1.48;0.28;;;8.70;99.90;;;;;;5100570;28;20039;-62
2023/01/13 05:08:47;;;;;;;1.08;0.20;;;8.80;99.90;;;;;;5100582;28;20077;-64
2023/01/13 05:16:59;;;;;;;0.03;0.00;;;8.90;99.90;;;;;;5101955;28;20065;-66
2023/01/13 05:19:39;;;;;;;4.13;0.10;;;8.90;99.90;;;;;;5092671;28;20108;-63
2023/01/13 05:25:23;;;;;;;0.60;0.17;;;9.00;99.90;;;;;;5088902;28;20430;-65
2023/01/13 05:27:41;;;;;;;0.70;0.20;;;9.00;99.90;;;;;;5093077;28;20059;-62
2023/01/13 05:30:07;;;;;;;2.60;0.20;;;9.00;99.90;;;;;;5089776;28;20070;-65
2023/01/13 05:32:32;;;;;;;2.70;0.15;;;9.00;99.90;;;;;;5075832;28;20036;-65
2023/01/13 05:34:58;;;;;;;0.47;0.10;;;9.00;99.90;;;;;;5082834;28;20043;-64
2023/01/13 05:37:24;;;;;;;0.50;0.20;;;9.00;99.90;;;;;;5076493;28;20036;-67
2023/01/13 05:45:19;;;;;;;2.90;0.32;;;9.00;99.90;;;;;;5085034;28;20047;-65
2023/01/13 05:47:44;;;;;;;1.70;0.28;;;9.00;99.90;;;;;;5076902;28;20024;-66
2023/01/13 05:50:10;;;;;;;1.95;0.30;;;8.90;99.90;;;;;;5075005;28;20036;-64
2023/01/13 05:52:36;;;;;;;2.85;0.40;;;8.90;99.90;;;;;;5074878;28;20039;-65
2023/01/13 05:55:02;;;;;;;0.28;0.17;;;9.00;99.90;;;;;;5087452;28;20028;-65
2023/01/13 05:57:27;;;;;;;0.20;0.10;;;9.00;99.90;;;;;;5098120;28;20047;-62
2023/01/13 05:59:53;;;;;;;0.38;0.20;;;9.10;99.90;;;;;;5088775;28;20116;-64
2023/01/13 06:02:19;;;;;;;0.40;0.20;;;9.00;99.90;;;;;;5074893;28;20038;-66
2023/01/13 06:04:44;;;;;;;0.63;0.10;;;9.10;99.90;;;;;;5074802;28;20108;-64
2023/01/13 06:07:10;;;;;;;2.33;0.40;;;9.10;99.90;;;;;;5074912;28;20040;-63
2023/01/13 06:09:35;;;;;;;1.00;0.35;;;9.10;99.90;;;;;;5084518;28;20028;-65
2023/01/13 06:12:01;;;;;;;0.50;0.40;;;9.00;99.90;;;;;;5076398;28;20039;-64
2023/01/13 06:15:00;;;;;;;5.38;0.40;;;9.00;99.90;;;;;;5076114;28;20184;-64
2023/01/13 06:17:19;;;;;;;7.07;0.57;;;8.90;99.90;;;;;;5074856;28;20044;-67
2023/01/13 06:19:44;;;;;;;1.95;0.50;;;9.00;99.90;;;;;;5078202;28;20035;-67
2023/01/13 06:22:29;;;;;;;1.55;0.55;;;8.90;99.90;;;;;;5076985;28;20024;-66
2023/01/13 06:24:55;;;;;;;1.52;0.50;;;8.90;99.90;;;;;;5091176;28;20089;-64
2023/01/13 06:27:21;;;;;;;1.38;0.50;;;8.90;99.90;;;;;;5084565;28;20390;-66
2023/01/13 06:29:47;;;;;;;1.00;0.30;;;8.90;99.90;;;;;;5086675;28;20410;-64
2023/01/13 06:32:21;;;;;;;0.50;0.30;;;9.00;99.90;;;;;;5091935;28;20024;-65
2023/01/13 06:34:53;;;;;;;0.28;0.10;;;9.00;99.90;;;;;;5079654;28;20398;-67
2023/01/13 06:37:24;;;;;;;0.95;0.20;;;9.00;99.90;;;;;;5084383;28;20115;-65
2023/01/13 06:39:50;;;;;;;1.95;0.17;;;9.00;99.90;;;;;;5087422;28;20489;-65
2023/01/13 06:45:00;;;;;;;4.47;0.50;;;9.10;99.90;;;;;;5090541;28;20550;-67
2023/01/13 06:47:25;;;;;;;2.58;0.50;;;9.20;99.90;;;;;;5091206;28;20110;-66
2023/01/13 06:49:52;;;;;;;1.20;0.40;;;9.30;99.90;;;;;;5091089;28;20016;-61
2023/01/13 06:52:17;;;;;;;1.42;0.28;;;9.20;99.90;;;;;;5089942;28;20024;-65
2023/01/13 06:54:43;;;;;;;0.38;0.20;;;9.20;99.90;;;;;;5094614;28;20116;-65
2023/01/13 06:57:09;;;;;;;3.22;0.52;;;9.10;99.90;;;;;;5088729;28;20047;-64
2023/01/13 06:59:34;;;;;;;2.15;0.30;;;9.00;99.90;;;;;;5087991;28;20028;-64
2023/01/13 07:02:01;;;;;;;0.98;0.63;;;9.00;99.90;;;;;;5096875;28;20031;-66
2023/01/13 07:04:27;;;;;;;0.60;0.25;;;9.00;99.90;;;;;;5096354;28;20089;-63
2023/01/13 07:06:52;;;;;;;0.73;0.32;;;8.90;99.90;;;;;;5090972;28;20031;-67
2023/01/13 07:09:18;;;;;;;1.52;0.60;;;9.00;99.90;;;;;;5095858;28;20020;-64
2023/01/13 07:11:44;;;;;;;0.95;0.22;;;9.00;99.90;;;;;;5075611;28;20040;-66
2023/01/13 07:16:54;;;;;;;0.40;0.20;;;9.00;99.90;;;;;;5075924;28;20044;-67
2023/01/13 07:19:22;;;;;;;0.73;0.20;;;9.10;99.90;;;;;;5076384;28;20021;-67
2023/01/13 07:21:51;;;;;;;0.38;0.20;;;9.10;99.90;;;;;;5087389;28;20036;-67
2023/01/13 07:24:18;;;;;;;1.55;0.20;;;9.20;99.90;;;;;;5095838;28;20544;-66
2023/01/13 07:26:44;;;;;;;0.70;0.20;;;9.20;99.90;;;;;;5094473;28;20034;-66
2023/01/13 07:29:10;;;;;;;0.80;0.30;;;8.20;99.90;;;;;;5097971;28;20138;-66
2023/01/13 07:31:36;;;;;;;0.40;0.20;;;9.20;99.90;;;;;;5094090;28;20028;-63
2023/01/13 07:34:02;;;;;;;1.05;0.20;;;9.20;99.90;;;;;;5095525;28;20030;-67
2023/01/13 07:36:27;;;;;;;1.40;0.40;;;9.20;99.90;;;;;;5095333;28;20688;-66
2023/01/13 07:38:53;;;;;;;2.95;0.20;;;9.20;99.90;;;;;;5094053;28;20032;-66
2023/01/13 07:44:05;;;;;;;0.98;0.20;;;9.10;99.90;;;;;;5088823;28;20040;-64
2023/01/13 07:46:31;;;;;;;2.15;0.30;;;9.10;99.90;;;;;;5094745;28;20572;-64
2023/01/13 07:48:56;;;;;;;0.88;0.30;;;9.10;99.90;;;;;;5095302;28;20024;-66
2023/01/13 07:51:22;;;;;;;0.75;0.30;;;9.10;99.90;;;;;;5083467;28;20088;-67
2023/01/13 07:53:48;;;;;;;1.10;0.32;;;9.10;99.90;;;;;;5094476;28;20314;-67
2023/01/13 07:56:14;;;;;;;0.70;0.20;;;9.20;99.90;;;;;;5080320;28;20043;-66
2023/01/13 07:58:40;;;;;;;1.10;0.10;;;9.10;99.90;;;;;;5074732;28;20017;-65
2023/01/13 08:01:07;;;;;;;0.50;0.20;;;9.10;99.90;;;;;;5072056;28;20035;-63
2023/01/13 08:03:33;;;;;;;1.00;0.40;;;9.00;99.90;;;;;;5082714;28;20043;-68
2023/01/13 08:06:02;;;;;;;2.72;0.60;;;9.00;99.90;;;;;;5096997;28;20205;-65
2023/01/13 08:08:27;;;;;;;2.78;1.45;;;9.10;99.90;;;;;;5108944;22;20073;-60
2023/01/13 08:10:53;;;;;;;3.70;1.95;;;9.00;99.90;;;;;;5086095;28;20060;-61
2023/01/13 08:13:19;;;;;;;11.23;5.93;;;9.10;99.90;;;;;;5086198;28;20028;-62
2023/01/13 08:15:50;;;;;;;5.20;2.85;;;9.10;99.90;;;;;;5092081;28;20119;-60
2023/01/13 08:18:20;;;;;;;5.07;3.83;;;9.10;99.90;;;;;;5077517;28;20081;-62
2023/01/13 08:20:47;;;;;;;5.05;3.90;;;9.10;99.90;;;;;;5079088;28;20406;-64
2023/01/13 08:23:13;;;;;;;10.98;7.55;;;9.10;99.90;;;;;;5067332;28;20070;-64
2023/01/13 08:25:39;;;;;;;1.20;0.60;;;9.10;99.90;;;;;;5082167;28;20028;-63
2023/01/13 08:28:05;;;;;;;1.25;0.40;;;9.10;99.90;;;;;;5072460;28;20047;-63
2023/01/13 08:30:30;;;;;;;3.58;2.38;;;9.10;99.90;;;;;;5089066;28;20222;-63
2023/01/13 08:32:56;;;;;;;2.08;1.20;;;9.10;99.90;;;;;;5081863;28;20021;-62
2023/01/13 08:35:22;;;;;;;3.70;1.75;;;9.10;99.90;;;;;;5070873;28;20088;-62
2023/01/13 08:37:49;;;;;;;2.10;0.93;;;9.10;99.90;;;;;;5089080;28;20478;-64
2023/01/13 08:40:16;;;;;;;9.63;1.90;;;9.00;99.90;;;;;;5088188;28;20063;-66
2023/01/13 08:42:42;;;;;;;3.50;2.30;;;9.00;99.90;;;;;;5087245;28;20030;-62
2023/01/13 08:45:08;;;;;;;3.00;1.83;;;9.00;99.90;;;;;;5089324;28;20119;-61
2023/01/13 08:47:34;;;;;;;1.80;0.80;;;8.90;99.90;;;;;;5089777;28;20544;-65
2023/01/13 08:50:00;;;;;;;1.52;0.57;;;8.90;99.90;;;;;;5088424;28;20020;-64
2023/01/13 08:52:27;;;;;;;0.43;0.38;;;9.00;99.90;;;;;;5079569;28;20051;-64
2023/01/13 08:54:53;;;;;;;3.65;2.17;;;9.00;99.90;;;;;;5074600;28;20043;-65
2023/01/13 08:57:18;;;;;;;5.05;1.42;;;8.90;99.90;;;;;;5080554;28;20024;-66
2023/01/13 08:59:45;;;;;;;2.42;1.33;;;8.90;99.90;;;;;;5083906;28;20485;-63
2023/01/13 09:02:17;;;;;;;1.83;1.02;;;8.40;99.90;;;;;;5082903;28;20024;-61
2023/01/13 09:04:44;;;;;;;1.73;0.60;;;8.90;99.90;;;;;;5072959;28;20025;-64
2023/01/13 09:07:10;;;;;;;2.30;1.30;;;9.00;99.90;;;;;;5075392;28;20154;-65
2023/01/13 09:09:36;;;;;;;7.20;2.72;;;8.90;99.90;;;;;;5082445;28;20099;-65
2023/01/13 09:14:46;;;;;;;3.93;1.43;;;8.90;99.90;;;;;;5073021;28;20104;-65
2023/01/13 09:17:12;;;;;;;4.57;1.15;;;8.90;99.90;;;;;;5073552;28;20482;-60
2023/01/13 09:19:38;;;;;;;3.55;1.52;;;9.30;99.90;;;;;;5080657;28;20035;-63
2023/01/13 09:22:04;;;;;;;7.00;3.28;;;8.90;99.90;;;;;;5074033;28;20187;-65
2023/01/13 09:24:30;;;;;;;4.13;1.42;;;8.80;99.90;;;;;;5082916;28;20482;-66
2023/01/13 09:26:55;;;;;;;2.72;1.35;;;9.00;99.90;;;;;;5082909;28;20009;-65
2023/01/13 09:29:21;;;;;;;2.75;0.60;;;9.00;99.90;;;;;;5084037;28;20031;-64
2023/01/13 09:31:47;;;;;;;2.25;0.77;;;9.00;99.90;;;;;;5079108;28;20107;-65
2023/01/13 09:37:01;;;;;;;3.90;1.52;;;9.00;99.90;;;;;;5072242;28;20159;-64
2023/01/13 09:39:27;;;;;;;3.00;1.08;;;8.90;99.90;;;;;;5071461;28;20449;-63
2023/01/13 09:44:42;;;;;;;2.03;0.50;;;8.80;99.90;;;;;;5082685;28;20093;-63
2023/01/13 09:47:16;;;;;;;3.53;0.60;;;8.80;99.90;;;;;;5077776;28;20025;-66
2023/01/13 09:49:42;;;;;;;3.20;0.50;;;8.80;99.90;;;;;;5069116;28;20486;-68
2023/01/13 09:52:19;;;;;;;2.20;0.40;;;8.70;99.90;;;;;;5075197;28;20067;-61
2023/01/13 09:55:08;;;;;;;1.00;0.30;;;8.70;99.90;;;;;;5071732;28;20403;-64
2023/01/13 09:57:37;;;;;;;2.92;0.50;;;8.60;99.90;;;;;;5071812;28;20030;-66
2023/01/13 10:00:36;;;;;;;2.05;0.65;;;8.50;99.90;;;;;;5074771;28;20490;-64
2023/01/13 10:03:22;;;;;;;3.03;0.90;;;8.50;99.90;;;;;;5068612;28;20044;-62
2023/01/13 10:06:03;;;;;;;2.78;0.60;;;8.50;99.90;;;;;;5075874;28;20020;-62
2023/01/13 10:08:31;;;;;;;2.58;1.02;;;8.50;99.90;;;;;;5081236;28;20028;-63
2023/01/13 10:13:53;;;;;;;3.60;0.60;;;8.40;99.90;;;;;;5081573;28;20057;-63
2023/01/13 10:16:47;;;;;;;1.40;0.60;;;8.40;99.90;;;;;;5080727;28;20123;-65
2023/01/13 10:19:28;;;;;;;2.55;1.85;;;8.30;99.90;;;;;;5081641;28;20394;-62
2023/01/13 10:22:14;;;;;;;5.15;0.95;;;8.30;99.90;;;;;;5076471;28;20135;-64
2023/01/13 10:25:00;;;;;;;1.90;0.50;;;8.30;99.90;;;;;;5071826;28;20409;-66
2023/01/13 10:27:35;;;;;;;3.85;0.55;;;8.30;99.90;;;;;;5070824;28;20111;-63
2023/01/13 10:30:44;;;;;;;1.52;0.75;;;8.50;99.90;;;;;;5075362;28;20112;-63
2023/01/13 10:33:16;;;;;;;1.05;0.40;;;8.50;99.90;;;;;;5069529;28;20047;-64
2023/01/13 10:36:01;;;;;;;2.85;0.52;;;8.50;99.90;;;;;;5073147;28;20108;-65
2023/01/13 10:38:40;;;;;;;1.15;0.30;;;8.60;99.90;;;;;;5070821;28;20431;-61
2023/01/13 10:41:14;;;;;;;3.83;0.47;;;8.60;99.90;;;;;;5069427;28;20642;-57
2023/01/13 10:43:44;;;;;;;3.92;0.50;;;8.70;99.90;;;;;;5072571;28;20016;-62
2023/01/13 10:46:14;;;;;;;1.83;0.40;;;8.80;99.90;;;;;;5078542;28;20020;-61
2023/01/13 10:48:55;;;;;;;1.10;0.30;;;8.80;99.90;;;;;;5074948;28;20013;-62
2023/01/13 10:51:44;;;;;;;1.27;0.40;;;8.80;99.90;;;;;;5070203;28;20021;-60
2023/01/13 10:54:12;;;;;;;1.25;0.30;;;8.70;99.90;;;;;;5076160;28;20028;-59
2023/01/13 10:56:42;;;;;;;1.15;0.30;;;8.80;99.90;;;;;;5071738;28;20506;-65
2023/01/13 10:59:21;;;;;;;1.23;0.30;;;8.70;99.90;;;;;;5080918;28;20012;-65
2023/01/13 11:02:18;;;;;;;0.98;0.20;;;8.80;99.90;;;;;;5073472;28;20739;-65
2023/01/13 11:04:56;;;;;;;1.88;0.40;;;7.60;99.90;;;;;;5069456;28;20123;-57
2023/01/13 11:07:56;;;;;;;2.50;0.43;;;9.00;99.90;;;;;;5075057;28;20035;-63
2023/01/13 11:10:28;;;;;;;2.58;0.47;;;9.10;99.90;;;;;;5079766;28;20348;-66
2023/01/13 11:13:16;;;;;;;2.33;0.40;;;9.20;99.90;;;;;;5077300;28;20190;-64
2023/01/13 11:16:00;;;;;;;1.25;0.30;;;9.20;99.90;;;;;;5061943;28;20031;-64
2023/01/13 11:19:32;;;;;;;2.10;0.60;;;9.30;99.90;;;;;;5069420;28;20035;-62
2023/01/13 11:21:45;;;;;;;6.93;0.50;;;9.20;99.90;;;;;;5069332;28;20110;-65
2023/01/13 11:24:26;;;;;;;2.55;0.60;;;9.30;99.90;;;;;;5077469;28;20028;-63
2023/01/13 11:27:10;;;;;;;2.85;0.80;;;9.30;99.90;;;;;;5072494;28;20021;-62
2023/01/13 11:29:59;;;;;;;1.43;0.40;;;9.40;99.90;;;;;;5076658;28;20490;-65
2023/01/13 11:32:29;;;;;;;1.95;0.40;;;9.50;99.90;;;;;;5070589;28;20034;-63
2023/01/13 11:35:08;;;;;;;1.50;0.60;;;9.60;99.90;;;;;;5080974;28;20058;-67
2023/01/13 11:37:40;;;;;;;4.00;0.57;;;9.70;99.90;;;;;;5070374;28;20039;-65
2023/01/13 11:40:20;;;;;;;3.05;0.63;;;9.80;99.90;;;;;;5077161;28;20127;-66
2023/01/13 11:43:00;;;;;;;2.70;0.60;;;9.90;99.90;;;;;;5069781;28;20089;-61
2023/01/13 11:45:37;;;;;;;3.88;0.70;;;11.00;99.90;;;;;;5077839;28;20556;-65
2023/01/13 11:48:03;;;;;;;8.45;0.65;;;9.90;99.90;;;;;;5079425;28;20458;-61
2023/01/13 11:50:41;;;;;;;4.15;0.63;;;10.10;99.90;;;;;;5068695;28;20032;-61
2023/01/13 11:53:27;;;;;;;6.18;1.10;;;10.20;99.90;;;;;;5072181;28;20028;-64
2023/01/13 11:56:00;;;;;;;0.80;0.50;;;10.60;99.90;;;;;;5067743;28;20127;-59
2023/01/13 11:58:59;;;;;;;5.32;1.00;;;10.60;99.90;;;;;;5069609;28;20036;-61
2023/01/13 12:01:45;;;;;;;2.13;0.50;;;10.30;99.90;;;;;;5081346;28;20509;-64
2023/01/13 12:04:29;;;;;;;4.13;1.00;;;10.20;99.90;;;;;;5076921;28;20111;-61
2023/01/13 12:07:20;;;;;;;5.20;1.27;;;10.20;99.90;;;;;;5081249;28;20139;-59
2023/01/13 12:10:01;;;;;;;4.78;0.52;;;10.20;99.90;;;;;;5081149;28;20277;-65
2023/01/13 12:12:48;;;;;;;6.78;0.70;;;10.10;99.90;;;;;;5079540;28;20035;-64
2023/01/13 12:15:20;;;;;;;2.78;0.52;;;10.00;99.90;;;;;;5075747;28;20111;-58
2023/01/13 12:18:21;;;;;;;3.22;0.90;;;9.90;99.90;;;;;;5070316;28;20036;-61
2023/01/13 12:21:14;;;;;;;7.95;0.52;;;9.80;99.90;;;;;;5072064;28;20544;-62
2023/01/13 12:23:58;;;;;;;2.50;0.57;;;9.80;99.90;;;;;;5065177;28;20046;-61
2023/01/13 12:26:25;;;;;;;8.27;0.68;;;9.80;99.90;;;;;;5070669;28;20066;-59
2023/01/13 12:29:01;;;;;;;4.72;0.65;;;9.70;99.90;;;;;;5072079;28;20043;-65
2023/01/13 12:31:28;;;;;;;2.30;0.60;;;9.70;99.90;;;;;;5079351;28;20044;-58
2023/01/13 12:34:25;;;;;;;7.80;0.90;;;9.60;99.90;;;;;;5077792;28;20127;-63
2023/01/13 12:37:05;;;;;;;4.78;0.63;;;9.60;99.90;;;;;;5068264;28;20047;-63
2023/01/13 12:40:08;;;;;;;2.00;0.63;;;9.60;99.90;;;;;;5067911;28;20096;-60
2023/01/13 12:45:28;;;;;;;1.25;0.40;;;9.60;99.90;;;;;;5079186;28;20039;-59
2023/01/13 12:47:55;;;;;;;3.00;0.60;;;9.60;99.90;;;;;;5065614;28;20035;-65
2023/01/13 12:50:20;;;;;;;7.28;1.10;;;9.70;99.90;;;;;;5077334;28;20044;-64
2023/01/13 12:52:47;;;;;;;4.57;0.68;;;9.80;99.90;;;;;;5077883;28;20106;-64
2023/01/13 12:55:18;;;;;;;4.82;0.82;;;9.80;99.90;;;;;;5066821;28;20024;-54
2023/01/13 12:58:00;;;;;;;6.28;0.70;;;9.80;99.90;;;;;;5068898;28;20024;-66
2023/01/13 13:00:38;;;;;;;2.05;0.60;;;9.80;99.90;;;;;;5069439;28;20039;-63
2023/01/13 13:03:08;;;;;;;5.65;0.80;;;9.90;99.90;;;;;;5075304;28;20074;-63
2023/01/13 13:05:40;;;;;;;5.20;0.63;;;10.00;99.90;;;;;;5076715;28;20024;-64
2023/01/13 13:08:43;;;;;;;5.57;0.82;;;10.00;99.90;;;;;;5076060;28;20344;-61
2023/01/13 13:13:16;;;;;;;3.38;0.90;;;9.80;99.90;;;;;;5069121;28;20174;-66
2023/01/13 13:14:12;;;;;;;4.40;2.15;;;9.90;99.90;;;;;;4838618;28;10001117;-64
2023/01/13 13:16:50;;;;;;;6.72;0.65;;;10.10;99.90;;;;;;5080548;28;20245;-65
2023/01/13 13:19:21;;;;;;;9.73;1.30;;;10.20;99.90;;;;;;5083302;28;20016;-61
2023/01/13 13:22:12;;;;;;;5.82;0.82;;;10.10;99.90;;;;;;5072434;28;20032;-64
2023/01/13 13:24:58;;;;;;;6.15;1.30;;;10.10;99.90;;;;;;5081101;28;20395;-67
2023/01/13 13:27:44;;;;;;;3.13;0.40;;;10.10;99.90;;;;;;5083622;28;20024;-58
2023/01/13 13:30:25;;;;;;;6.05;1.00;;;10.20;99.90;;;;;;5073903;28;20043;-66
2023/01/13 13:33:29;;;;;;;14.63;1.90;;;10.50;99.90;;;;;;5079507;28;20041;-64
2023/01/13 13:36:20;;;;;;;2.25;0.73;;;11.00;99.90;;;;;;5086413;28;20132;-62
2023/01/13 13:47:38;;;;;;;5.85;1.10;;;10.70;99.90;;;;;;5084542;28;20225;-61
2023/01/13 13:50:19;;;;;;;10.82;0.95;;;10.80;99.90;;;;;;5072631;28;20052;-65
2023/01/13 13:53:07;;;;;;;4.85;0.90;;;10.70;99.90;;;;;;5079228;28;20020;-62
2023/01/13 13:55:33;;;;;;;5.93;0.80;;;10.40;99.90;;;;;;5084895;28;20032;-63
2023/01/13 13:58:00;;;;;;;4.70;1.13;;;10.10;99.90;;;;;;5071092;28;20102;-66
2023/01/13 14:00:32;;;;;;;8.13;0.80;;;10.00;99.90;;;;;;5087916;28;20042;-58
2023/01/13 14:03:17;;;;;;;6.75;0.63;;;10.00;99.90;;;;;;5085997;28;20558;-65
2023/01/13 14:05:53;;;;;;;4.65;0.80;;;9.80;99.90;;;;;;5082666;28;20067;-63
2023/01/13 14:08:20;;;;;;;4.20;1.00;;;9.70;99.90;;;;;;5084467;28;20583;-65
2023/01/13 14:10:46;;;;;;;7.03;0.85;;;9.60;99.90;;;;;;5088810;28;20132;-60
2023/01/13 14:13:25;;;;;;;8.43;0.90;;;9.50;99.90;;;;;;5076237;28;20032;-64
2023/01/13 14:16:05;;;;;;;5.20;0.88;;;9.40;99.90;;;;;;5074025;28;20085;-62
2023/01/13 14:18:46;;;;;;;4.32;0.70;;;9.30;99.90;;;;;;5076177;28;20020;-58
2023/01/13 14:21:25;;;;;;;4.85;1.77;;;9.40;99.90;;;;;;5075973;28;20040;-65
2023/01/13 14:23:52;;;;;;;6.82;1.05;;;9.40;99.90;;;;;;5085106;28;20060;-62